Time;durP1;ratioP1;P1;durP2;ratioP2;P2;SDS_P1;SDS_P2;PMS_P1;PMS_P2;Temp;Humidity;BMP_temperature;BMP_pressure;BME280_temperature;BME280_humidity;BME280_pressure;Samples;Min_cycle;Max_cycle;Signal;HPM_P1;HPM_P2
2022/05/24 00:01:03;;;;;;;3.92;1.40;;;18.40;99.90;;;;;;5010636;28;20482;-90
2022/05/24 00:03:28;;;;;;;4.45;1.70;;;18.40;99.90;;;;;;5024101;28;20138;-90
2022/05/24 00:05:54;;;;;;;1.50;1.20;;;18.40;99.90;;;;;;5007465;28;20029;-90
2022/05/24 00:08:20;;;;;;;4.65;1.40;;;18.40;99.90;;;;;;5030447;28;20420;-89
2022/05/24 00:10:48;;;;;;;4.43;1.23;;;18.30;99.90;;;;;;5034660;28;20022;-89
2022/05/24 00:13:13;;;;;;;2.97;1.40;;;18.30;99.90;;;;;;5027684;28;20515;-88
2022/05/24 00:15:39;;;;;;;3.78;1.13;;;18.30;99.90;;;;;;5032058;28;20052;-89
2022/05/24 00:18:14;;;;;;;4.00;1.67;;;18.30;99.90;;;;;;5029416;28;20412;-90
2022/05/24 00:21:00;;;;;;;3.20;1.20;;;18.30;99.90;;;;;;5033493;28;20510;-90
2022/05/24 00:23:28;;;;;;;1.52;0.90;;;18.20;99.90;;;;;;5003619;28;20081;-89
2022/05/24 00:25:57;;;;;;;0.80;0.80;;;18.10;99.90;;;;;;5035821;28;20477;-89
2022/05/24 00:28:28;;;;;;;0.60;0.60;;;18.00;99.90;;;;;;5027395;28;20048;-88
2022/05/24 00:30:54;;;;;;;1.42;0.82;;;17.90;99.90;;;;;;5023529;28;20025;-89
2022/05/24 00:33:23;;;;;;;0.80;0.80;;;17.80;99.90;;;;;;5015296;28;20034;-88
2022/05/24 00:35:49;;;;;;;1.55;0.70;;;17.60;99.90;;;;;;5029306;28;20036;-91
2022/05/24 00:38:26;;;;;;;1.73;0.80;;;17.50;99.90;;;;;;5017519;28;20116;-89
2022/05/24 00:41:04;;;;;;;1.10;0.90;;;17.50;99.90;;;;;;5021654;28;20025;-90
2022/05/24 00:43:45;;;;;;;3.50;1.00;;;17.30;99.90;;;;;;5053085;28;20044;-88
2022/05/24 00:46:16;;;;;;;1.15;1.00;;;17.20;99.90;;;;;;5020459;28;20098;-88
2022/05/24 00:48:58;;;;;;;1.13;1.10;;;17.10;99.90;;;;;;5022562;28;20481;-89
2022/05/24 00:51:36;;;;;;;2.00;1.05;;;17.00;99.90;;;;;;5042858;28;20030;-89
2022/05/24 00:54:03;;;;;;;1.15;0.93;;;17.00;99.90;;;;;;5023976;28;20021;-90
2022/05/24 00:56:52;;;;;;;1.70;0.90;;;16.90;99.90;;;;;;5024242;28;20500;-89
2022/05/24 00:59:42;;;;;;;4.78;1.02;;;16.80;99.90;;;;;;5026221;28;20041;-90
2022/05/24 01:02:08;;;;;;;1.30;1.20;;;16.90;99.90;;;;;;5012737;28;20033;-90
2022/05/24 01:04:34;;;;;;;1.20;1.10;;;16.80;99.90;;;;;;5045123;28;20488;-90
2022/05/24 01:06:59;;;;;;;1.38;1.27;;;16.70;99.90;;;;;;5019869;28;20525;-90
2022/05/24 01:09:49;;;;;;;1.60;1.30;;;16.70;99.90;;;;;;5002471;28;20512;-90
2022/05/24 01:12:27;;;;;;;2.45;1.30;;;16.60;99.90;;;;;;5035548;28;20018;-89
2022/05/24 01:14:57;;;;;;;8.02;1.55;;;16.60;99.90;;;;;;5019769;28;20069;-89
2022/05/24 01:17:23;;;;;;;1.67;1.40;;;16.60;99.90;;;;;;5023697;28;20021;-88
2022/05/24 01:19:49;;;;;;;4.28;1.60;;;16.60;99.90;;;;;;5021494;28;20076;-90
2022/05/24 01:22:38;;;;;;;1.67;1.58;;;16.60;99.90;;;;;;5000784;28;20026;-88
2022/05/24 01:25:10;;;;;;;1.90;1.75;;;16.60;99.90;;;;;;5011556;28;20032;-89
2022/05/24 01:27:37;;;;;;;1.70;1.60;;;16.60;99.90;;;;;;5017326;28;20116;-89
2022/05/24 01:30:07;;;;;;;2.47;1.90;;;16.60;99.90;;;;;;5028774;28;20018;-89
2022/05/24 01:38:07;;;;;;;1.85;1.50;;;16.50;99.90;;;;;;5029753;28;20040;-89
2022/05/24 01:40:33;;;;;;;2.13;1.92;;;16.60;99.90;;;;;;5010982;28;20057;-89
2022/05/24 01:42:59;;;;;;;1.90;1.80;;;16.60;99.90;;;;;;5013474;28;20056;-89
2022/05/24 01:45:33;;;;;;;2.20;1.90;;;16.60;99.90;;;;;;5026266;28;20029;-89
2022/05/24 01:48:02;;;;;;;2.67;1.92;;;16.70;99.90;;;;;;5025913;28;20025;-89
2022/05/24 01:50:29;;;;;;;2.45;2.20;;;16.60;99.90;;;;;;5026607;28;20104;-89
2022/05/24 01:53:00;;;;;;;3.05;2.20;;;16.60;99.90;;;;;;5035093;28;20068;-90
2022/05/24 01:55:37;;;;;;;2.85;2.20;;;16.60;99.90;;;;;;5011676;28;20026;-89
2022/05/24 01:58:07;;;;;;;2.85;2.50;;;16.50;99.90;;;;;;5016723;28;20029;-89
2022/05/24 02:00:32;;;;;;;2.75;2.53;;;16.40;99.90;;;;;;5011861;28;20242;-89
2022/05/24 02:02:58;;;;;;;2.90;2.70;;;16.40;99.90;;;;;;5014477;28;20154;-88
2022/05/24 02:05:35;;;;;;;4.60;3.03;;;16.40;99.90;;;;;;5009962;28;20062;-89
2022/05/24 02:08:03;;;;;;;3.15;2.83;;;16.40;99.90;;;;;;5026002;28;20367;-89
2022/05/24 02:10:35;;;;;;;3.35;3.05;;;16.30;99.90;;;;;;5028378;28;20024;-89
2022/05/24 02:13:02;;;;;;;3.65;2.63;;;16.30;99.90;;;;;;5030279;28;20473;-88
2022/05/24 02:15:33;;;;;;;3.30;2.92;;;16.30;99.90;;;;;;5028125;28;20052;-89
2022/05/24 02:18:12;;;;;;;3.10;2.90;;;16.30;99.90;;;;;;5032109;28;20050;-89
2022/05/24 02:20:40;;;;;;;3.67;3.13;;;16.30;99.90;;;;;;5029339;28;20025;-89
2022/05/24 02:23:07;;;;;;;4.78;3.00;;;16.40;99.90;;;;;;5050060;28;20477;-89
2022/05/24 02:25:52;;;;;;;3.13;2.80;;;16.40;99.90;;;;;;5028428;28;20037;-89
2022/05/24 02:28:21;;;;;;;3.28;2.97;;;16.40;99.90;;;;;;5031070;28;20166;-90
2022/05/24 02:31:02;;;;;;;5.82;3.47;;;16.40;99.90;;;;;;5024595;28;20028;-89
2022/05/24 02:33:28;;;;;;;4.97;3.10;;;16.40;99.90;;;;;;5030830;28;20033;-89
2022/05/24 02:35:54;;;;;;;3.50;3.20;;;16.40;99.90;;;;;;5030687;28;20198;-90
2022/05/24 02:38:19;;;;;;;3.30;3.00;;;16.30;99.90;;;;;;5023574;28;20044;-89
2022/05/24 02:43:30;;;;;;;4.07;3.45;;;16.30;99.90;;;;;;5047690;28;20114;-89
2022/05/24 02:45:56;;;;;;;3.55;3.25;;;16.30;99.90;;;;;;5031042;28;20116;-89
2022/05/24 02:48:22;;;;;;;5.93;3.70;;;16.30;99.90;;;;;;5053029;28;20033;-89
2022/05/24 02:50:48;;;;;;;3.92;3.38;;;16.30;99.90;;;;;;5034811;28;20552;-89
2022/05/24 02:53:13;;;;;;;4.15;3.80;;;16.30;99.90;;;;;;5025887;28;20116;-89
2022/05/24 02:55:39;;;;;;;4.32;3.58;;;16.30;99.90;;;;;;5031271;28;20039;-89
2022/05/24 02:58:05;;;;;;;4.70;3.50;;;16.30;99.90;;;;;;5030655;28;20072;-89
2022/05/24 03:00:31;;;;;;;5.32;3.72;;;16.30;99.90;;;;;;5051464;28;20064;-89
2022/05/24 03:02:57;;;;;;;4.97;4.45;;;16.30;99.90;;;;;;5030375;28;20029;-90
2022/05/24 03:05:25;;;;;;;6.25;4.38;;;16.20;99.90;;;;;;5028589;28;20033;-89
2022/05/24 03:10:36;;;;;;;5.63;4.63;;;16.20;99.90;;;;;;5030545;28;20043;-89
2022/05/24 03:15:47;;;;;;;5.95;5.07;;;16.10;99.90;;;;;;5026545;28;20511;-89
2022/05/24 03:18:16;;;;;;;6.38;5.22;;;16.10;99.90;;;;;;5008803;28;20042;-88
2022/05/24 03:20:43;;;;;;;6.63;5.13;;;16.10;99.90;;;;;;5008290;28;20064;-89
2022/05/24 03:23:09;;;;;;;6.35;5.32;;;16.10;99.90;;;;;;5023245;28;20030;-89
2022/05/24 03:25:35;;;;;;;6.57;5.30;;;16.10;99.90;;;;;;5028365;28;20026;-89
2022/05/24 03:28:03;;;;;;;5.78;5.10;;;16.10;99.90;;;;;;5029695;28;20030;-89
2022/05/24 03:30:30;;;;;;;6.00;5.32;;;16.10;99.90;;;;;;5006143;28;20025;-89
2022/05/24 03:32:55;;;;;;;5.95;5.35;;;16.20;99.90;;;;;;5009032;28;20040;-89
2022/05/24 03:35:21;;;;;;;5.70;5.10;;;16.20;99.90;;;;;;5012395;28;20021;-89
2022/05/24 03:37:47;;;;;;;6.70;5.18;;;16.20;99.90;;;;;;5010487;28;20474;-89
2022/05/24 03:40:13;;;;;;;5.53;5.00;;;16.20;99.90;;;;;;5009697;28;20037;-89
2022/05/24 03:42:38;;;;;;;6.68;5.35;;;16.20;99.90;;;;;;5010987;28;20129;-90
2022/05/24 03:45:07;;;;;;;6.10;5.15;;;16.30;99.90;;;;;;5025879;28;20524;-90
2022/05/24 03:47:33;;;;;;;5.45;4.95;;;16.30;99.90;;;;;;5008492;28;20033;-89
2022/05/24 03:49:59;;;;;;;6.10;4.88;;;16.30;99.90;;;;;;5029433;28;20032;-90
2022/05/24 03:52:24;;;;;;;5.68;4.80;;;16.30;99.90;;;;;;5030672;28;20385;-88
2022/05/24 03:54:50;;;;;;;5.47;4.97;;;16.20;99.90;;;;;;5029851;28;20036;-90
2022/05/24 04:00:00;;;;;;;5.05;4.50;;;16.20;99.90;;;;;;5027678;28;20485;-89
2022/05/24 04:02:26;;;;;;;6.38;5.07;;;16.20;99.90;;;;;;5010266;28;20037;-89
2022/05/24 04:04:51;;;;;;;6.93;4.75;;;16.20;99.90;;;;;;5011181;28;20029;-89
2022/05/24 04:07:17;;;;;;;6.72;5.00;;;16.20;99.90;;;;;;5011713;28;20124;-89
2022/05/24 04:09:43;;;;;;;5.95;5.45;;;16.20;99.90;;;;;;5029116;28;20032;-88
2022/05/24 04:12:09;;;;;;;6.28;5.32;;;16.10;99.90;;;;;;5030867;28;20021;-88
2022/05/24 04:14:35;;;;;;;6.68;4.65;;;16.10;99.90;;;;;;5030603;28;20025;-89
2022/05/24 04:17:01;;;;;;;5.55;4.68;;;16.10;99.90;;;;;;5027630;28;20353;-89
2022/05/24 04:19:27;;;;;;;5.18;4.68;;;16.10;99.90;;;;;;5029629;28;20086;-88
2022/05/24 04:21:53;;;;;;;4.90;4.50;;;16.10;99.90;;;;;;5024636;28;20032;-89
2022/05/24 04:24:18;;;;;;;5.32;4.82;;;16.10;99.90;;;;;;5045562;28;20524;-89
2022/05/24 04:26:44;;;;;;;4.97;4.53;;;16.20;99.90;;;;;;5021488;28;20187;-89
2022/05/24 04:29:11;;;;;;;6.65;4.78;;;16.20;99.90;;;;;;5026460;28;20370;-89
2022/05/24 04:31:36;;;;;;;5.93;5.35;;;16.20;99.90;;;;;;5048256;28;20029;-89
2022/05/24 04:34:02;;;;;;;5.68;4.50;;;16.20;99.90;;;;;;5025638;28;20029;-88
2022/05/24 04:38:57;;;;;;;6.13;4.70;;;16.20;99.90;;;;;;5081342;28;20082;-86
2022/05/24 04:44:07;;;;;;;5.53;5.03;;;16.30;99.90;;;;;;5082647;28;20119;-87
2022/05/24 04:49:22;;;;;;;6.00;4.97;;;16.30;99.90;;;;;;5082964;28;20043;-87
2022/05/24 04:51:48;;;;;;;6.63;5.28;;;16.30;99.90;;;;;;5068668;28;20043;-89
2022/05/24 04:54:14;;;;;;;6.78;4.85;;;16.30;99.90;;;;;;5068849;28;20024;-86
2022/05/24 04:56:39;;;;;;;10.57;5.30;;;16.30;99.90;;;;;;5070519;28;20019;-87
2022/05/24 04:59:05;;;;;;;5.65;5.07;;;16.30;99.90;;;;;;5065559;28;20107;-87
2022/05/24 05:01:31;;;;;;;6.07;5.47;;;16.30;99.90;;;;;;5071345;28;20115;-88
2022/05/24 05:03:56;;;;;;;7.90;5.43;;;16.30;99.90;;;;;;5068441;28;20024;-87
2022/05/24 05:06:22;;;;;;;6.32;5.60;;;16.30;99.90;;;;;;5063877;28;20598;-86
2022/05/24 05:08:47;;;;;;;7.25;5.65;;;16.30;99.90;;;;;;5063569;28;20025;-87
2022/05/24 05:11:13;;;;;;;7.10;4.95;;;16.30;99.90;;;;;;5064692;28;20020;-86
2022/05/24 05:13:39;;;;;;;5.22;4.78;;;16.30;99.90;;;;;;5068339;28;20058;-87
2022/05/24 05:16:05;;;;;;;7.35;4.97;;;16.40;99.90;;;;;;5061019;28;20107;-87
2022/05/24 05:18:30;;;;;;;12.70;9.05;;;16.40;99.90;;;;;;5084583;28;20028;-87
2022/05/24 05:20:56;;;;;;;6.95;5.95;;;16.50;99.90;;;;;;5082701;28;20096;-87
2022/05/24 05:23:22;;;;;;;6.05;5.25;;;16.50;99.90;;;;;;5060625;28;20020;-86
2022/05/24 05:25:47;;;;;;;5.95;5.30;;;16.50;99.90;;;;;;5067150;28;20098;-86
2022/05/24 05:28:14;;;;;;;6.50;5.47;;;16.40;99.90;;;;;;5069721;28;20028;-85
2022/05/24 05:33:24;;;;;;;9.13;5.90;;;16.40;99.90;;;;;;5087833;28;20047;-87
2022/05/24 05:35:50;;;;;;;20.08;12.35;;;16.30;99.90;;;;;;5100398;28;20535;-86
2022/05/24 05:38:16;;;;;;;9.32;6.57;;;16.30;99.90;;;;;;5061383;28;20039;-84
2022/05/24 05:40:41;;;;;;;7.82;5.63;;;16.30;99.90;;;;;;5069889;28;20167;-87
2022/05/24 05:43:07;;;;;;;6.45;5.57;;;16.30;99.90;;;;;;5064738;28;20067;-87
2022/05/24 05:45:33;;;;;;;7.78;5.95;;;16.30;99.90;;;;;;5064946;28;20490;-87
2022/05/24 05:47:58;;;;;;;7.82;5.72;;;16.40;99.90;;;;;;5064882;28;20040;-87
2022/05/24 05:50:24;;;;;;;7.80;5.80;;;16.40;99.90;;;;;;5071945;28;20075;-87
2022/05/24 05:52:52;;;;;;;12.02;5.88;;;16.40;99.90;;;;;;5065952;28;20139;-87
2022/05/24 05:55:20;;;;;;;7.70;5.75;;;16.40;99.90;;;;;;5068674;28;20036;-87
2022/05/24 05:57:47;;;;;;;7.15;5.45;;;16.50;99.90;;;;;;5070631;28;20520;-86
2022/05/24 06:00:13;;;;;;;11.70;8.70;;;16.50;99.90;;;;;;5071673;28;20020;-87
2022/05/24 06:02:39;;;;;;;7.88;5.07;;;16.60;99.90;;;;;;5070507;28;20028;-87
2022/05/24 06:05:06;;;;;;;6.03;4.88;;;16.60;99.90;;;;;;5090275;28;20029;-86
2022/05/24 06:07:32;;;;;;;5.53;5.03;;;16.70;99.90;;;;;;5055811;28;20071;-87
2022/05/24 06:09:58;;;;;;;6.63;4.57;;;16.80;99.90;;;;;;5071801;28;20032;-86
2022/05/24 06:12:24;;;;;;;6.05;4.05;;;16.90;99.90;;;;;;5080405;28;20021;-87
2022/05/24 06:14:50;;;;;;;4.30;3.90;;;17.00;99.90;;;;;;5079423;28;20097;-87
2022/05/24 06:17:16;;;;;;;4.22;3.83;;;17.00;99.90;;;;;;5055667;28;20028;-87
2022/05/24 06:19:42;;;;;;;7.22;4.40;;;17.00;99.90;;;;;;5091320;28;20364;-87
2022/05/24 06:22:08;;;;;;;4.38;3.97;;;17.00;99.90;;;;;;5076557;28;20024;-87
2022/05/24 06:24:34;;;;;;;7.10;3.95;;;16.90;99.90;;;;;;5094363;28;20027;-88
2022/05/24 06:26:59;;;;;;;4.32;3.58;;;17.00;99.90;;;;;;5075887;28;20077;-87
2022/05/24 06:29:25;;;;;;;4.22;3.65;;;16.90;99.90;;;;;;5075957;28;20024;-86
2022/05/24 06:31:51;;;;;;;4.05;3.65;;;16.90;99.90;;;;;;5075570;28;20499;-87
2022/05/24 06:34:17;;;;;;;4.75;4.10;;;17.00;99.90;;;;;;5074082;28;20025;-87
2022/05/24 06:36:43;;;;;;;5.30;4.05;;;17.00;99.90;;;;;;5075953;28;20506;-86
2022/05/24 06:39:09;;;;;;;5.25;4.07;;;17.00;99.90;;;;;;5094195;28;20024;-88
2022/05/24 06:41:34;;;;;;;4.75;4.35;;;17.00;99.90;;;;;;5094308;28;20016;-87
2022/05/24 06:44:00;;;;;;;4.95;3.90;;;17.00;99.90;;;;;;5067460;28;20115;-86
2022/05/24 06:46:26;;;;;;;4.85;3.75;;;17.00;99.90;;;;;;5072951;28;20050;-86
2022/05/24 06:48:51;;;;;;;5.35;4.15;;;17.10;99.90;;;;;;5071465;28;20026;-86
2022/05/24 06:51:20;;;;;;;3.90;3.60;;;17.20;99.90;;;;;;5072529;28;20021;-87
2022/05/24 06:53:47;;;;;;;4.03;3.63;;;17.30;99.90;;;;;;5072469;28;20021;-86
2022/05/24 06:56:13;;;;;;;4.40;3.05;;;17.40;99.90;;;;;;5056145;28;20496;-86
2022/05/24 06:58:39;;;;;;;5.07;3.50;;;17.50;99.90;;;;;;5074394;28;20034;-86
2022/05/24 07:03:51;;;;;;;3.33;3.03;;;17.60;99.90;;;;;;5093739;28;20123;-87
2022/05/24 07:06:17;;;;;;;8.68;5.43;;;17.70;99.90;;;;;;5074850;28;20532;-86
2022/05/24 07:08:44;;;;;;;3.53;3.22;;;17.80;99.90;;;;;;5074035;28;20480;-86
2022/05/24 07:11:11;;;;;;;4.75;3.13;;;18.00;99.90;;;;;;5071131;28;20029;-86
2022/05/24 07:13:39;;;;;;;4.68;2.78;;;18.20;99.90;;;;;;5092016;28;20020;-86
2022/05/24 07:16:06;;;;;;;3.03;2.70;;;18.30;99.90;;;;;;5091166;28;20024;-86
2022/05/24 07:18:31;;;;;;;2.92;2.45;;;18.30;99.90;;;;;;5073520;28;20100;-87
2022/05/24 07:20:57;;;;;;;2.75;2.55;;;18.30;99.90;;;;;;5073136;28;20477;-86
2022/05/24 07:23:26;;;;;;;3.10;2.80;;;18.20;99.90;;;;;;5091177;28;20024;-86
2022/05/24 07:25:54;;;;;;;3.13;2.83;;;18.20;99.90;;;;;;5072240;28;20039;-87
2022/05/24 07:28:20;;;;;;;3.95;2.30;;;18.00;99.90;;;;;;5074361;28;20016;-84
2022/05/24 07:30:48;;;;;;;2.75;2.28;;;18.00;99.90;;;;;;5063789;28;20028;-86
2022/05/24 07:33:15;;;;;;;1.73;1.48;;;18.00;99.90;;;;;;5087266;28;20050;-86
2022/05/24 07:35:41;;;;;;;2.90;1.55;;;17.90;99.90;;;;;;5092711;28;20069;-86
2022/05/24 07:38:12;;;;;;;2.08;1.80;;;17.90;99.90;;;;;;5074661;28;20044;-87
2022/05/24 07:46:11;;;;;;;4.57;0.82;;;17.50;99.90;;;;;;5093297;28;20108;-87
2022/05/24 07:48:36;;;;;;;3.40;0.90;;;17.30;99.90;;;;;;5084613;28;20024;-87
2022/05/24 07:51:03;;;;;;;2.05;0.60;;;16.90;99.90;;;;;;5093227;28;20404;-87
2022/05/24 07:53:30;;;;;;;2.70;0.40;;;16.70;99.90;;;;;;5068986;28;20036;-86
2022/05/24 07:55:56;;;;;;;4.90;0.57;;;16.30;99.90;;;;;;5074691;28;20500;-87
2022/05/24 07:58:23;;;;;;;2.13;0.70;;;16.10;99.90;;;;;;5097821;28;20031;-85
2022/05/24 08:00:48;;;;;;;2.17;0.60;;;15.90;99.90;;;;;;5113185;28;20028;-86
2022/05/24 08:03:14;;;;;;;1.45;0.60;;;15.80;99.90;;;;;;5073425;28;20040;-87
2022/05/24 08:05:40;;;;;;;5.30;0.40;;;15.60;99.90;;;;;;5070233;28;20024;-88
2022/05/24 08:08:07;;;;;;;0.70;0.30;;;15.50;99.90;;;;;;5058286;28;20150;-87
2022/05/24 08:10:35;;;;;;;0.95;0.30;;;15.40;99.90;;;;;;5082397;28;20024;-87
2022/05/24 08:13:04;;;;;;;1.42;0.47;;;15.40;99.90;;;;;;5070843;28;20032;-87
2022/05/24 08:15:31;;;;;;;2.90;0.50;;;15.40;99.90;;;;;;5057410;28;20111;-87
2022/05/24 08:17:57;;;;;;;0.60;0.60;;;15.40;99.90;;;;;;5076065;28;20084;-87
2022/05/24 08:20:23;;;;;;;0.50;0.32;;;15.30;99.90;;;;;;5072651;28;20020;-88
2022/05/24 08:22:49;;;;;;;6.38;0.40;;;15.30;99.90;;;;;;5071933;28;20035;-87
2022/05/24 08:25:15;;;;;;;1.33;0.47;;;15.30;99.90;;;;;;5072840;28;20456;-86
2022/05/24 08:27:41;;;;;;;1.48;0.40;;;15.30;99.90;;;;;;5064188;28;20492;-86
2022/05/24 08:30:09;;;;;;;0.93;0.60;;;15.30;99.90;;;;;;5052944;28;20028;-86
2022/05/24 08:32:34;;;;;;;0.98;0.40;;;15.40;99.90;;;;;;5071386;28;20025;-86
2022/05/24 08:35:00;;;;;;;1.70;0.50;;;15.30;99.90;;;;;;5087682;28;20038;-87
2022/05/24 08:37:26;;;;;;;1.08;0.43;;;15.50;99.90;;;;;;5063105;28;20055;-86
2022/05/24 08:39:57;;;;;;;1.17;0.50;;;15.70;99.90;;;;;;5091353;28;20040;-87
2022/05/24 08:42:45;;;;;;;2.78;0.35;;;15.70;99.90;;;;;;5066011;28;20040;-87
2022/05/24 08:48:26;;;;;;;0.95;0.40;;;15.80;99.90;;;;;;5089769;28;20111;-87
2022/05/24 08:51:12;;;;;;;4.18;0.40;;;15.70;99.90;;;;;;5073072;28;20107;-87
2022/05/24 08:53:45;;;;;;;0.30;0.30;;;15.70;99.90;;;;;;5071009;28;20024;-88
2022/05/24 08:56:19;;;;;;;1.88;0.70;;;15.60;99.90;;;;;;5076546;28;20032;-87
2022/05/24 08:59:10;;;;;;;1.75;0.40;;;15.70;99.90;;;;;;5067686;28;20035;-87
2022/05/24 09:01:36;;;;;;;1.08;0.40;;;15.70;99.90;;;;;;5064814;28;20059;-87
2022/05/24 09:04:08;;;;;;;1.65;0.40;;;15.70;99.90;;;;;;5068769;28;20132;-86
2022/05/24 09:06:43;;;;;;;2.17;0.32;;;15.60;99.90;;;;;;5082792;28;20052;-86
2022/05/24 09:09:46;;;;;;;1.48;0.30;;;15.70;99.90;;;;;;5089229;28;20021;-86
2022/05/24 09:12:16;;;;;;;0.80;0.40;;;15.70;99.90;;;;;;5069339;28;20028;-88
2022/05/24 09:15:00;;;;;;;1.27;0.40;;;15.70;99.90;;;;;;5065360;28;20027;-87
2022/05/24 09:17:46;;;;;;;0.85;0.40;;;15.80;99.90;;;;;;5064493;28;20400;-86
2022/05/24 09:20:31;;;;;;;0.75;0.75;;;15.80;99.90;;;;;;5059460;28;20032;-86
2022/05/24 09:23:02;;;;;;;3.60;0.50;;;15.80;99.90;;;;;;5066599;28;20085;-87
2022/05/24 09:25:28;;;;;;;5.73;0.50;;;15.80;99.90;;;;;;5078698;28;20028;-86
2022/05/24 09:27:55;;;;;;;1.73;0.47;;;15.90;99.90;;;;;;5086669;28;20293;-87
2022/05/24 09:30:25;;;;;;;0.63;0.30;;;16.00;99.90;;;;;;5070934;28;20036;-86
2022/05/24 09:32:51;;;;;;;0.32;0.32;;;16.10;99.90;;;;;;5084713;27;20036;-86
2022/05/24 09:35:16;;;;;;;0.68;0.50;;;16.20;99.90;;;;;;5092802;28;20063;-88
2022/05/24 09:37:45;;;;;;;2.75;0.45;;;16.20;99.90;;;;;;5057782;28;20032;-87
2022/05/24 09:40:24;;;;;;;2.03;0.40;;;16.20;99.90;;;;;;5062312;28;20062;-87
2022/05/24 09:42:50;;;;;;;0.65;0.30;;;16.20;99.90;;;;;;5077792;28;20036;-87
2022/05/24 09:45:28;;;;;;;3.20;1.15;;;16.30;99.90;;;;;;5061308;28;20043;-87
2022/05/24 09:47:58;;;;;;;1.48;0.43;;;16.30;99.90;;;;;;5074643;28;20012;-93
2022/05/24 09:50:47;;;;;;;2.85;0.40;;;16.50;99.90;;;;;;5082038;27;20028;-93
2022/05/24 09:53:31;;;;;;;0.77;0.30;;;16.50;99.90;;;;;;5072890;28;20031;-93
2022/05/24 09:56:36;;;;;;;0.30;0.30;;;16.60;99.90;;;;;;5085552;28;20037;-93
2022/05/24 09:59:06;;;;;;;1.80;0.60;;;16.50;99.90;;;;;;5078737;28;20032;-92
2022/05/24 10:05:33;;;;;;;2.38;0.30;;;17.00;99.90;;;;;;5100417;28;20028;-92
2022/05/24 10:08:13;;;;;;;0.73;0.40;;;17.50;99.90;;;;;;5093358;28;20023;-92
2022/05/24 10:10:56;;;;;;;0.88;0.38;;;17.60;99.90;;;;;;5093234;28;20015;-94
2022/05/24 10:13:41;;;;;;;2.35;0.77;;;17.40;99.90;;;;;;5094761;27;20028;-92
2022/05/24 10:16:51;;;;;;;1.95;0.50;;;17.40;99.90;;;;;;5090789;27;20083;-92
2022/05/24 10:19:32;;;;;;;1.13;0.50;;;17.40;99.90;;;;;;5037376;28;20033;-92
2022/05/24 10:22:19;;;;;;;1.20;0.47;;;17.30;99.90;;;;;;5066794;28;20394;-93
2022/05/24 10:24:57;;;;;;;0.47;0.47;;;17.30;99.90;;;;;;5079382;28;20021;-94
2022/05/24 10:27:59;;;;;;;0.93;0.32;;;17.20;99.90;;;;;;5082529;28;20035;-93
2022/05/24 10:30:43;;;;;;;2.58;0.40;;;17.30;99.90;;;;;;5081666;28;20063;-94
2022/05/24 10:42:04;;;;;;;0.65;0.50;;;20.10;99.20;;;;;;5051693;28;20056;-90
2022/05/24 10:44:41;;;;;;;1.08;0.28;;;21.30;98.30;;;;;;5046170;28;20021;-90
2022/05/24 10:47:28;;;;;;;1.17;0.40;;;20.50;98.40;;;;;;5050109;28;20037;-89
2022/05/24 10:50:09;;;;;;;1.23;0.40;;;20.00;98.20;;;;;;5005440;28;20033;-88
2022/05/24 10:52:42;;;;;;;0.38;0.30;;;19.80;98.70;;;;;;5029252;28;20018;-88
2022/05/24 10:55:12;;;;;;;0.57;0.45;;;19.90;98.70;;;;;;5032030;28;20033;-90
2022/05/24 10:57:47;;;;;;;4.47;0.47;;;19.90;98.70;;;;;;5036712;28;20105;-91
2022/05/24 11:00:32;;;;;;;1.50;0.40;;;19.70;98.70;;;;;;5038085;28;20029;-92
2022/05/24 11:03:09;;;;;;;1.42;0.60;;;19.80;98.90;;;;;;5034228;28;20027;-87
2022/05/24 11:05:48;;;;;;;36.20;25.85;;;20.00;99.00;;;;;;5032771;28;20033;-86
2022/05/24 11:08:32;;;;;;;0.68;0.65;;;20.30;99.10;;;;;;5032361;28;20013;-88
2022/05/24 11:11:06;;;;;;;1.48;0.52;;;20.20;98.80;;;;;;5029811;28;20033;-88
2022/05/24 11:13:44;;;;;;;5.78;0.60;;;20.10;98.00;;;;;;5050841;28;20659;-85
2022/05/24 11:16:32;;;;;;;1.00;0.30;;;19.80;97.30;;;;;;5030254;28;20029;-88
2022/05/24 11:18:58;;;;;;;0.85;0.40;;;19.50;96.80;;;;;;5033279;28;20495;-87
2022/05/24 11:21:39;;;;;;;1.70;0.40;;;19.40;96.80;;;;;;5051245;28;20064;-88
2022/05/24 11:24:12;;;;;;;0.85;0.40;;;19.50;96.90;;;;;;5050750;28;20021;-87
2022/05/24 11:26:39;;;;;;;3.60;0.45;;;19.60;96.30;;;;;;5051529;28;20057;-87
2022/05/24 11:29:24;;;;;;;0.75;0.30;;;19.60;96.30;;;;;;5052694;28;20025;-86
2022/05/24 11:31:52;;;;;;;0.30;0.30;;;19.70;96.10;;;;;;5052326;28;20021;-90
2022/05/24 11:34:39;;;;;;;1.80;0.30;;;19.70;95.20;;;;;;5029845;28;20024;-87
2022/05/24 11:37:25;;;;;;;2.25;0.40;;;19.70;95.10;;;;;;5027675;28;20067;-87
2022/05/24 11:39:53;;;;;;;0.30;0.20;;;19.70;94.80;;;;;;5026559;28;20025;-87
2022/05/24 11:42:21;;;;;;;1.90;0.50;;;19.80;94.60;;;;;;5028271;28;20112;-88
2022/05/24 11:44:48;;;;;;;1.42;0.68;;;19.80;94.00;;;;;;5036119;28;20029;-88
2022/05/24 11:47:35;;;;;;;0.90;0.40;;;19.70;94.10;;;;;;5034424;28;20021;-88
2022/05/24 11:50:07;;;;;;;1.27;0.40;;;19.60;93.80;;;;;;5047987;28;20561;-88
2022/05/24 11:53:03;;;;;;;0.93;0.30;;;19.50;93.70;;;;;;5042120;28;20039;-87
2022/05/24 11:55:56;;;;;;;0.82;0.38;;;19.50;94.00;;;;;;5027752;28;20385;-87
2022/05/24 11:58:22;;;;;;;0.88;0.40;;;19.50;93.70;;;;;;5033893;28;20107;-87
2022/05/24 12:01:27;;;;;;;0.30;0.30;;;19.50;93.70;;;;;;5033380;28;20062;-90
2022/05/24 12:10:01;;;;;;;0.40;0.37;;;19.60;96.90;;;;;;5047593;28;20060;-88
2022/05/24 12:12:29;;;;;;;0.80;0.80;;;20.00;97.00;;;;;;5028628;28;20382;-87
2022/05/24 12:15:30;;;;;;;0.60;0.25;;;20.30;96.50;;;;;;5037741;28;20045;-90
2022/05/24 12:17:58;;;;;;;4.57;0.30;;;20.60;95.70;;;;;;5024098;28;20063;-90
2022/05/24 12:20:33;;;;;;;2.20;0.25;;;20.70;94.70;;;;;;5054075;28;20044;-87
2022/05/24 12:23:08;;;;;;;0.50;0.20;;;20.80;93.80;;;;;;5054001;28;20024;-88
2022/05/24 12:25:59;;;;;;;1.45;0.22;;;20.90;93.50;;;;;;5036058;28;20103;-88
2022/05/24 12:28:46;;;;;;;1.57;0.70;;;21.10;93.40;;;;;;5034280;28;20385;-89
2022/05/24 12:31:18;;;;;;;0.70;0.32;;;21.10;93.00;;;;;;5034365;28;20397;-88
2022/05/24 12:33:52;;;;;;;2.47;0.25;;;21.00;91.80;;;;;;5040890;28;20025;-89
2022/05/24 12:36:40;;;;;;;0.80;0.30;;;21.00;91.80;;;;;;5050201;28;20111;-90
2022/05/24 12:39:09;;;;;;;0.40;0.30;;;20.90;90.90;;;;;;5031823;28;20044;-90
2022/05/24 12:41:40;;;;;;;1.25;0.80;;;21.00;90.50;;;;;;5035159;28;20032;-91
2022/05/24 12:44:18;;;;;;;4.43;0.80;;;21.10;90.20;;;;;;5037816;28;20029;-90
2022/05/24 12:46:58;;;;;;;0.50;0.45;;;21.10;90.40;;;;;;5035648;28;20116;-89
2022/05/24 12:49:29;;;;;;;1.23;0.32;;;21.20;89.90;;;;;;5034094;28;20095;-90
2022/05/24 12:52:05;;;;;;;0.63;0.25;;;21.30;88.50;;;;;;5023077;28;20386;-90
2022/05/24 12:54:36;;;;;;;0.63;0.30;;;21.30;87.20;;;;;;5030649;28;20040;-87
2022/05/24 12:57:12;;;;;;;0.50;0.40;;;21.30;86.00;;;;;;5033226;28;20116;-88
2022/05/24 12:59:41;;;;;;;0.95;0.32;;;21.20;85.20;;;;;;5033989;28;20079;-88
2022/05/24 13:02:25;;;;;;;2.17;0.30;;;21.20;84.50;;;;;;5038493;28;20029;-86
2022/05/24 13:04:51;;;;;;;0.55;0.30;;;21.10;83.50;;;;;;5026650;28;20041;-86
2022/05/24 13:07:28;;;;;;;0.73;0.50;;;21.10;83.90;;;;;;5021711;28;20136;-88
2022/05/24 13:09:55;;;;;;;0.63;0.40;;;21.20;84.30;;;;;;5034294;28;20016;-89
2022/05/24 13:12:21;;;;;;;0.30;0.30;;;21.30;83.60;;;;;;5032520;28;20025;-88
2022/05/24 13:14:59;;;;;;;2.97;0.43;;;21.30;83.20;;;;;;5040281;28;20052;-90
2022/05/24 13:17:30;;;;;;;0.15;0.15;;;21.30;83.20;;;;;;5044352;28;20032;-89
2022/05/24 13:20:11;;;;;;;1.27;0.30;;;21.30;81.30;;;;;;5030417;28;20090;-90
2022/05/24 13:22:48;;;;;;;1.35;0.30;;;21.30;81.50;;;;;;5031293;28;20103;-89
2022/05/24 13:25:16;;;;;;;1.05;0.30;;;21.30;81.10;;;;;;5026082;28;20028;-89
2022/05/24 13:27:57;;;;;;;1.27;0.40;;;21.30;81.80;;;;;;5050612;28;20482;-89
2022/05/24 13:33:35;;;;;;;1.83;0.40;;;21.40;82.60;;;;;;5047667;28;20466;-88
2022/05/24 13:36:18;;;;;;;1.90;0.40;;;21.40;81.80;;;;;;5045256;28;20425;-88
2022/05/24 13:38:51;;;;;;;2.05;0.28;;;21.30;80.10;;;;;;5027761;28;20121;-88
2022/05/24 13:41:30;;;;;;;2.40;0.50;;;21.20;79.30;;;;;;5018359;28;20041;-88
2022/05/24 13:44:20;;;;;;;0.30;0.30;;;21.10;78.80;;;;;;5012595;28;20289;-88
2022/05/24 13:46:54;;;;;;;0.35;0.35;;;21.00;77.90;;;;;;5013125;28;20048;-89
2022/05/24 13:49:30;;;;;;;3.25;0.50;;;20.90;76.90;;;;;;5026167;28;20029;-87
2022/05/24 13:52:15;;;;;;;0.80;0.30;;;20.90;77.90;;;;;;5019483;28;20021;-88
2022/05/24 13:54:40;;;;;;;2.10;0.45;;;20.90;78.10;;;;;;5021575;28;20021;-88
2022/05/24 13:57:22;;;;;;;3.63;0.43;;;20.90;78.00;;;;;;5011144;28;20255;-89
2022/05/24 14:00:24;;;;;;;0.55;0.30;;;20.90;78.60;;;;;;5007731;28;20021;-90
2022/05/24 14:03:07;;;;;;;1.33;0.30;;;21.10;79.10;;;;;;5013116;28;20033;-92
2022/05/24 14:05:36;;;;;;;;;;;21.10;77.40;;;;;;5015962;28;20099;-93
2022/05/24 14:08:08;;;;;;;1.48;0.40;;;21.20;79.30;;;;;;5012794;28;19921;-92
2022/05/24 14:10:56;;;;;;;0.25;0.20;;;21.10;77.00;;;;;;5016038;28;20116;-92